Young Endeavour — VMGW — position and weather

sailwx.info

Track history (hours):
 
Tides and Currents Weather Stations Pressure Air Temp Water Temp Dewpoint Dewpoint Depression Visibility Wind Speed Wind Dir Waves Ship Positions

Young Endeavour (Australia)

Ship's website: http://www.youngendeavour.gov.au/

Last reported at 2018-Dec-12 04:31 UTC. Time now 2018-Dec-12 04:56 UTC.
Position S 32°43' E 152°09'.

Length 44 m; beam 7.8 m; draft 4 m.

Type: Sailing vessel. MMSI: 503071000.

Date/timePositionNaut miles runAvg speedWind from/ knotsBaromVisibWave heightAir tempDewpointWater temp
2018-Dec-12 04:31S 32°43' E 152°09'0 0.0
2018-Dec-12 04:01S 32°43' E 152°09'0 0.0
2018-Dec-12 03:30S 32°43' E 152°09'0 0.1
2018-Dec-12 03:01S 32°43' E 152°09'0 0.0
2018-Dec-12 02:31S 32°43' E 152°09'0 0.0
2018-Dec-12 02:01S 32°43' E 152°09'0 0.0
2018-Dec-12 01:30S 32°43' E 152°09'0 0.0
2018-Dec-12 01:01S 32°43' E 152°09'0 0.0
2018-Dec-12 00:31S 32°43' E 152°09'2 3.6
2018-Dec-12 00:00S 32°42' E 152°11'4 7.3
2018-Dec-11 23:30S 32°44' E 152°14'1 1.2
2018-Dec-11 23:00S 32°44' E 152°15'1 1.8
2018-Dec-11 22:30S 32°45' E 152°16'1 2.0
2018-Dec-11 22:01S 32°45' E 152°17'1 2.7
2018-Dec-11 21:31S 32°46' E 152°18'2 3.9
2018-Dec-11 21:01S 32°46' E 152°20'2 3.6
2018-Dec-11 20:30S 32°47' E 152°22'2 3.3
2018-Dec-11 20:00S 32°47' E 152°24'2 3.6
2018-Dec-11 19:30S 32°48' E 152°26'1 2.9
2018-Dec-11 19:00S 32°49' E 152°28'75 2.3
2018-Dec-10 10:08S 33°54' E 151°42'1 4.8
2018-Dec-10 10:00S 33°54' E 151°41'3 5.0
2018-Dec-10 09:30S 33°55' E 151°39'2 5.0
2018-Dec-10 09:00S 33°57' E 151°36'3 4.2
2018-Dec-10 08:19S 33°59' E 151°33'2 3.0
2018-Dec-10 07:46S 34°00' E 151°33'1 3.6
2018-Dec-10 07:30S 33°60' E 151°32'2 4.0
2018-Dec-10 07:01S 33°59' E 151°30'2 4.3
2018-Dec-10 06:30S 33°57' E 151°29'2 4.3
2018-Dec-10 06:01S 33°55' E 151°27'1 1.8
2018-Dec-10 05:31S 33°55' E 151°26'1 2.3
2018-Dec-10 05:01S 33°54' E 151°25'4 7.7
2018-Dec-10 04:31S 33°52' E 151°21'4 7.4
2018-Dec-10 04:01S 33°50' E 151°17'2 1.9
2018-Dec-10 02:50S 33°52' E 151°16'0 0.0
2018-Dec-10 02:14S 33°52' E 151°16'0 0.0
2018-Dec-10 01:23S 33°52' E 151°16'0 0.0
2018-Dec-09 23:59S 33°52' E 151°16'0 0.0
2018-Dec-09 22:41S 33°52' E 151°16'0 0.1
2018-Dec-09 22:17S 33°52' E 151°16'0 0.0
2018-Dec-09 21:59S 33°52' E 151°16'0 0.0
2018-Dec-09 21:20S 33°52' E 151°16'0 0.0
2018-Dec-09 20:50S 33°52' E 151°16'0 0.0
2018-Dec-09 19:29S 33°52' E 151°16'0 0.0
2018-Dec-09 18:59S 33°52' E 151°16'0 0.0
2018-Dec-09 18:29S 33°52' E 151°16'0 0.0
2018-Dec-09 17:59S 33°52' E 151°16'0 0.0
2018-Dec-09 17:29S 33°52' E 151°16'0 0.0
2018-Dec-09 16:59S 33°52' E 151°16'0 0.0
2018-Dec-09 16:29S 33°52' E 151°16'0 0.1
2018-Dec-09 15:59S 33°52' E 151°16'0 0.0
2018-Dec-09 15:29S 33°52' E 151°16'0 0.0
2018-Dec-09 14:59S 33°52' E 151°16'0 0.0
2018-Dec-09 14:29S 33°52' E 151°16'0 0.0
2018-Dec-09 13:59S 33°52' E 151°16'0 0.0
2018-Dec-09 13:29S 33°52' E 151°16'0 0.0
2018-Dec-09 12:59S 33°52' E 151°16'0 0.0
2018-Dec-09 12:29S 33°52' E 151°16'0 0.0
2018-Dec-09 11:59S 33°52' E 151°16'0 0.0
2018-Dec-09 11:29S 33°52' E 151°16'0 0.0
2018-Dec-09 10:56S 33°52' E 151°16'0 0.0
2018-Dec-09 10:29S 33°52' E 151°16'0 0.0
2018-Dec-09 09:59S 33°52' E 151°16'0 0.0
2018-Dec-09 09:29S 33°52' E 151°16'0 0.0
2018-Dec-09 08:59S 33°52' E 151°16'0 0.1
2018-Dec-09 08:23S 33°52' E 151°16'0 0.0
2018-Dec-09 06:59S 33°52' E 151°16'0 0.0
2018-Dec-09 05:41S 33°52' E 151°16'0 1.9
2018-Dec-09 05:30S 33°52' E 151°16'2 0.3
2018-Dec-08 23:17S 33°52' E 151°13'0 0.0
2018-Dec-08 21:29S 33°52' E 151°13'0 0.0
2018-Dec-08 11:23S 33°52' E 151°13'0 0.0
2018-Dec-08 10:35S 33°52' E 151°13'0 0.1
2018-Dec-08 10:29S 33°52' E 151°13'0 0.0
2018-Dec-08 09:47S 33°52' E 151°13'0 0.0
2018-Dec-08 09:05S 33°52' E 151°13'0 0.0
2018-Dec-08 01:05S 33°52' E 151°13'0 0.0
2018-Dec-08 00:56S 33°52' E 151°13'0 0.0
2018-Dec-08 00:30S 33°52' E 151°13'0 0.0
2018-Dec-07 23:54S 33°52' E 151°13'0 0.0
2018-Dec-07 23:24S 33°52' E 151°13'0 0.0
2018-Dec-07 22:12S 33°52' E 151°13'0 0.0
2018-Dec-07 21:48S 33°52' E 151°13'0 0.0
2018-Dec-07 21:12S 33°52' E 151°13'0 0.0
2018-Dec-07 20:48S 33°52' E 151°13'0 0.0
2018-Dec-07 20:18S 33°52' E 151°13'0 0.0
2018-Dec-07 19:48S 33°52' E 151°13'0 0.0
2018-Dec-07 19:30S 33°52' E 151°13'0 0.0
2018-Dec-07 18:51S 33°52' E 151°13'0 0.0
2018-Dec-07 12:18S 33°52' E 151°13'0 0.0
2018-Dec-07 11:18S 33°52' E 151°13'0 0.0
2018-Dec-07 01:03S 33°52' E 151°13'0 0.0
2018-Dec-07 00:45S 33°52' E 151°13'0 0.0
2018-Dec-07 00:15S 33°52' E 151°13'0 0.0
2018-Dec-06 23:57S 33°52' E 151°13'0 0.8
2018-Dec-06 23:29S 33°52' E 151°13'1 1.6
2018-Dec-06 22:59S 33°51' E 151°14'0 0.1
2018-Dec-06 22:30S 33°51' E 151°14'2 3.5
2018-Dec-06 22:00S 33°52' E 151°16'2 0.2
2018-Dec-06 10:32S 33°52' E 151°13'0 0.0
2018-Dec-05 02:44S 33°52' E 151°13'0 1.5
2018-Dec-05 02:30S 33°52' E 151°13'1 1.1
2018-Dec-05 02:00S 33°51' E 151°14'0 0.7
2018-Dec-05 01:30S 33°51' E 151°13'1 2.4
2018-Dec-05 00:59S 33°51' E 151°15'0 0.2
2018-Dec-05 00:29S 33°51' E 151°15'0 0.0
2018-Dec-05 00:00S 33°51' E 151°15'1 1.4
2018-Dec-04 23:30S 33°52' E 151°15'0 0.6
2018-Dec-04 23:00S 33°52' E 151°15'3 5.2
2018-Dec-04 22:30S 33°51' E 151°12'0 0.3
2018-Dec-04 20:50S 33°51' E 151°12'0 0.0
2018-Dec-04 03:19S 33°51' E 151°12'0 0.0
2018-Dec-04 02:46S 33°51' E 151°12'0 0.0
2018-Dec-03 23:23S 33°51' E 151°12'  
Track history (hours):
 
Tides and Currents Weather Stations Pressure Air Temp Water Temp Dewpoint Dewpoint Depression Visibility Wind Speed Wind Dir Waves Ship Positions

Young Endeavour (Australia)

Ship's website: http://www.youngendeavour.gov.au/

Last reported at 2018-Dec-12 04:31 UTC. Time now 2018-Dec-12 04:56 UTC.
Position S 32°43' E 152°09'.

Length 44 m; beam 7.8 m; draft 4 m.

Type: Sailing vessel. MMSI: 503071000.

Date/timePositionNaut miles runAvg speedWind from/ knotsBaromVisibWave heightAir tempDewpointWater temp
2018-Dec-12 04:31S 32°43' E 152°09'0 0.0
2018-Dec-12 04:01S 32°43' E 152°09'0 0.0
2018-Dec-12 03:30S 32°43' E 152°09'0 0.1
2018-Dec-12 03:01S 32°43' E 152°09'0 0.0
2018-Dec-12 02:31S 32°43' E 152°09'0 0.0
2018-Dec-12 02:01S 32°43' E 152°09'0 0.0
2018-Dec-12 01:30S 32°43' E 152°09'0 0.0
2018-Dec-12 01:01S 32°43' E 152°09'0 0.0
2018-Dec-12 00:31S 32°43' E 152°09'2 3.6
2018-Dec-12 00:00S 32°42' E 152°11'4 7.3
2018-Dec-11 23:30S 32°44' E 152°14'1 1.2
2018-Dec-11 23:00S 32°44' E 152°15'1 1.8
2018-Dec-11 22:30S 32°45' E 152°16'1 2.0
2018-Dec-11 22:01S 32°45' E 152°17'1 2.7
2018-Dec-11 21:31S 32°46' E 152°18'2 3.9
2018-Dec-11 21:01S 32°46' E 152°20'2 3.6
2018-Dec-11 20:30S 32°47' E 152°22'2 3.3
2018-Dec-11 20:00S 32°47' E 152°24'2 3.6
2018-Dec-11 19:30S 32°48' E 152°26'1 2.9
2018-Dec-11 19:00S 32°49' E 152°28'75 2.3
2018-Dec-10 10:08S 33°54' E 151°42'1 4.8
2018-Dec-10 10:00S 33°54' E 151°41'3 5.0
2018-Dec-10 09:30S 33°55' E 151°39'2 5.0
2018-Dec-10 09:00S 33°57' E 151°36'3 4.2
2018-Dec-10 08:19S 33°59' E 151°33'2 3.0
2018-Dec-10 07:46S 34°00' E 151°33'1 3.6
2018-Dec-10 07:30S 33°60' E 151°32'2 4.0
2018-Dec-10 07:01S 33°59' E 151°30'2 4.3
2018-Dec-10 06:30S 33°57' E 151°29'2 4.3
2018-Dec-10 06:01S 33°55' E 151°27'1 1.8
2018-Dec-10 05:31S 33°55' E 151°26'1 2.3
2018-Dec-10 05:01S 33°54' E 151°25'4 7.7
2018-Dec-10 04:31S 33°52' E 151°21'4 7.4
2018-Dec-10 04:01S 33°50' E 151°17'2 1.9
2018-Dec-10 02:50S 33°52' E 151°16'0 0.0
2018-Dec-10 02:14S 33°52' E 151°16'0 0.0
2018-Dec-10 01:23S 33°52' E 151°16'0 0.0
2018-Dec-09 23:59S 33°52' E 151°16'0 0.0
2018-Dec-09 22:41S 33°52' E 151°16'0 0.1
2018-Dec-09 22:17S 33°52' E 151°16'0 0.0
2018-Dec-09 21:59S 33°52' E 151°16'0 0.0
2018-Dec-09 21:20S 33°52' E 151°16'0 0.0
2018-Dec-09 20:50S 33°52' E 151°16'0 0.0
2018-Dec-09 19:29S 33°52' E 151°16'0 0.0
2018-Dec-09 18:59S 33°52' E 151°16'0 0.0
2018-Dec-09 18:29S 33°52' E 151°16'0 0.0
2018-Dec-09 17:59S 33°52' E 151°16'0 0.0
2018-Dec-09 17:29S 33°52' E 151°16'0 0.0
2018-Dec-09 16:59S 33°52' E 151°16'0 0.0
2018-Dec-09 16:29S 33°52' E 151°16'0 0.1
2018-Dec-09 15:59S 33°52' E 151°16'0 0.0
2018-Dec-09 15:29S 33°52' E 151°16'0 0.0
2018-Dec-09 14:59S 33°52' E 151°16'0 0.0
2018-Dec-09 14:29S 33°52' E 151°16'0 0.0
2018-Dec-09 13:59S 33°52' E 151°16'0 0.0
2018-Dec-09 13:29S 33°52' E 151°16'0 0.0
2018-Dec-09 12:59S 33°52' E 151°16'0 0.0
2018-Dec-09 12:29S 33°52' E 151°16'0 0.0
2018-Dec-09 11:59S 33°52' E 151°16'0 0.0
2018-Dec-09 11:29S 33°52' E 151°16'0 0.0
2018-Dec-09 10:56S 33°52' E 151°16'0 0.0
2018-Dec-09 10:29S 33°52' E 151°16'0 0.0
2018-Dec-09 09:59S 33°52' E 151°16'0 0.0
2018-Dec-09 09:29S 33°52' E 151°16'0 0.0
2018-Dec-09 08:59S 33°52' E 151°16'0 0.1
2018-Dec-09 08:23S 33°52' E 151°16'0 0.0
2018-Dec-09 06:59S 33°52' E 151°16'0 0.0
2018-Dec-09 05:41S 33°52' E 151°16'0 1.9
2018-Dec-09 05:30S 33°52' E 151°16'2 0.3
2018-Dec-08 23:17S 33°52' E 151°13'0 0.0
2018-Dec-08 21:29S 33°52' E 151°13'0 0.0
2018-Dec-08 11:23S 33°52' E 151°13'0 0.0
2018-Dec-08 10:35S 33°52' E 151°13'0 0.1
2018-Dec-08 10:29S 33°52' E 151°13'0 0.0
2018-Dec-08 09:47S 33°52' E 151°13'0 0.0
2018-Dec-08 09:05S 33°52' E 151°13'0 0.0
2018-Dec-08 01:05S 33°52' E 151°13'0 0.0
2018-Dec-08 00:56S 33°52' E 151°13'0 0.0
2018-Dec-08 00:30S 33°52' E 151°13'0 0.0
2018-Dec-07 23:54S 33°52' E 151°13'0 0.0
2018-Dec-07 23:24S 33°52' E 151°13'0 0.0
2018-Dec-07 22:12S 33°52' E 151°13'0 0.0
2018-Dec-07 21:48S 33°52' E 151°13'0 0.0
2018-Dec-07 21:12S 33°52' E 151°13'0 0.0
2018-Dec-07 20:48S 33°52' E 151°13'0 0.0
2018-Dec-07 20:18S 33°52' E 151°13'0 0.0
2018-Dec-07 19:48S 33°52' E 151°13'0 0.0
2018-Dec-07 19:30S 33°52' E 151°13'0 0.0
2018-Dec-07 18:51S 33°52' E 151°13'0 0.0
2018-Dec-07 12:18S 33°52' E 151°13'0 0.0
2018-Dec-07 11:18S 33°52' E 151°13'0 0.0
2018-Dec-07 01:03S 33°52' E 151°13'0 0.0
2018-Dec-07 00:45S 33°52' E 151°13'0 0.0
2018-Dec-07 00:15S 33°52' E 151°13'0 0.0
2018-Dec-06 23:57S 33°52' E 151°13'0 0.8
2018-Dec-06 23:29S 33°52' E 151°13'1 1.6
2018-Dec-06 22:59S 33°51' E 151°14'0 0.1
2018-Dec-06 22:30S 33°51' E 151°14'2 3.5
2018-Dec-06 22:00S 33°52' E 151°16'2 0.2
2018-Dec-06 10:32S 33°52' E 151°13'0 0.0
2018-Dec-05 02:44S 33°52' E 151°13'0 1.5
2018-Dec-05 02:30S 33°52' E 151°13'1 1.1
2018-Dec-05 02:00S 33°51' E 151°14'0 0.7
2018-Dec-05 01:30S 33°51' E 151°13'1 2.4
2018-Dec-05 00:59S 33°51' E 151°15'0 0.2
2018-Dec-05 00:29S 33°51' E 151°15'0 0.0
2018-Dec-05 00:00S 33°51' E 151°15'1 1.4
2018-Dec-04 23:30S 33°52' E 151°15'0 0.6
2018-Dec-04 23:00S 33°52' E 151°15'3 5.2
2018-Dec-04 22:30S 33°51' E 151°12'0 0.3
2018-Dec-04 20:50S 33°51' E 151°12'0 0.0
2018-Dec-04 03:19S 33°51' E 151°12'0 0.0
2018-Dec-04 02:46S 33°51' E 151°12'0 0.0
2018-Dec-03 23:23S 33°51' E 151°12'  

Dump ship's entire track history